Lamoni, IA

4:27 PM CDT on April 19, 2015 (GMT -0500)
IEM | | Change Station
CLOSE
Current Station
Personal Weather Station
Location: Lamoni, IA
Elevation: 1180 ft
Nearby Weather Stations

Elev 1180 ft 40.63 °N, 93.94 °W | Updated 18 minutes ago

Overcast
Overcast
57 °F
Feels Like 57 °F
N
7
Wind Variable Wind from NW
Gusts 0.0 mph

Today
High -- | Low -- °F
--% Chance of Precip.
Yesterday
High -- | Low -- °F
Precip. -- in
6:31 AM 7:59 PM
New Moon, 2% visible
Pressure 29.56 in
Visibility 10.0 miles
Clouds Mostly Cloudy 1300 ft
Overcast 1800 ft
Dew Point 57 °F
Humidity 100%
Rainfall in
Snow Depth Not available.
UV 2 out of 12
Pollen 2.30 out of 12
Air Quality Not available.
Flu Activity Local Activity
METAR KLWD 192053Z AUTO 33018G29KT 10SM BKN013 OVC018 14/12 A2956 RMK AO2 PK WND 33029/2045 RAB1955E21 SLP009 P0002 60003 T01440122 55012

More Conditions Fewer Conditions

Pressure 29.56 in
Visibility 10.0 miles
Clouds Mostly Cloudy 1300 ft
Overcast 1800 ft
Dew Point 57 °F
Humidity 100%
Rainfall in
Snow Depth Not available.
UV 2 out of 12
Pollen 2.30 out of 12
Air Quality Not available.
Flu Activity Local Activity
METAR KLWD 192053Z AUTO 33018G29KT 10SM BKN013 OVC018 14/12 A2956 RMK AO2 PK WND 33029/2045 RAB1955E21 SLP009 P0002 60003 T01440122 55012

More Conditions Fewer Conditions

10-Day Weather Forecast

Almanac

Astronomy

Apr. 19, 2015 Rise Set
Actual Time
Civil Twilight
Nautical Twilight
Astronomical Twilight
Moon
Length of Visible Light
Length of Day
Tomorrow will be .
, % of the Moon is Illuminated

Today's Extremes

State Highs State Lows

Community

WunderPhotos

Upload Photos

1,814,988 photos uploaded!

WunderBlogs® & News

Nearby

Air Quality

  Air Quality AQ Index Pollutant
Not available.

Snow Depth

Station Depth Elevation

Earthquake Activity

City Distance Mag. Time & Date
Minimum magnitude displayed is 2.5.

Coastal Water Temperatures

Place Temperature

Stations

Nearby Weather Stations

Station Location Temp. Windchill Dew Point Humidity Wind Precip. Elev Updated Type